AFL694 UGTB-LTAC
Flight info
| Callsign | AFL694 |
|---|---|
| Flight time | N/A |
| Altitude | 38000 |
| Route | ZAGOT DCT NOLGA UN61 TBN UW71 ILHAN |
| Aircraft | A20N/M-SDE2E3FGHIRWXY/LB1 |
Departure
| Time | 2026-04-28 18:24 |
|---|---|
| Airport | Tbilisi International Airport (UGTB) |
Arrival
| Time | N/A |
|---|---|
| Airport | Esenboğa International Airport (LTAC) |
| Time | Latitude | Longitude | Altitude | Speed | Heading |
|---|---|---|---|---|---|
| 2026-04-28 17:44 | 41.66857 | 44.96383 | 1551 ft | 0 kts | 44° |
| 2026-04-28 18:10 | 41.66854 | 44.96378 | 1551 ft | 2 kts | 44° |
| 2026-04-28 18:10 | 41.66843 | 44.96364 | 1551 ft | 2 kts | 44° |
| 2026-04-28 18:10 | 41.66832 | 44.96350 | 1551 ft | 2 kts | 44° |
| 2026-04-28 18:11 | 41.66821 | 44.96336 | 1551 ft | 2 kts | 44° |
| 2026-04-28 18:11 | 41.66810 | 44.96324 | 1551 ft | 2 kts | 21° |
| 2026-04-28 18:11 | 41.66795 | 44.96319 | 1551 ft | 2 kts | 355° |
| 2026-04-28 18:11 | 41.66786 | 44.96322 | 1551 ft | 0 kts | 326° |
| 2026-04-28 18:16 | 41.66804 | 44.96302 | 1551 ft | 7 kts | 314° |
| 2026-04-28 18:16 | 41.66854 | 44.96229 | 1551 ft | 15 kts | 313° |
| 2026-04-28 18:16 | 41.66933 | 44.96105 | 1552 ft | 19 kts | 298° |
| 2026-04-28 18:17 | 41.67015 | 44.95950 | 1553 ft | 22 kts | 311° |
| 2026-04-28 18:17 | 41.67124 | 44.95802 | 1554 ft | 23 kts | 313° |
| 2026-04-28 18:17 | 41.67237 | 44.95644 | 1555 ft | 24 kts | 313° |
| 2026-04-28 18:17 | 41.67352 | 44.95479 | 1556 ft | 25 kts | 313° |
| 2026-04-28 18:18 | 41.67476 | 44.95306 | 1557 ft | 26 kts | 315° |
| 2026-04-28 18:18 | 41.67596 | 44.95143 | 1559 ft | 27 kts | 314° |
| 2026-04-28 18:18 | 41.67672 | 44.94988 | 1560 ft | 11 kts | 242° |
| 2026-04-28 18:18 | 41.67652 | 44.94922 | 1559 ft | 13 kts | 252° |
| 2026-04-28 18:19 | 41.67613 | 44.94746 | 1558 ft | 17 kts | 253° |
| 2026-04-28 18:19 | 41.67575 | 44.94576 | 1555 ft | 21 kts | 250° |
| 2026-04-28 18:19 | 41.67553 | 44.94498 | 1556 ft | 0 kts | 249° |
| 2026-04-28 18:21 | 41.67548 | 44.94483 | 1557 ft | 4 kts | 248° |
| 2026-04-28 18:21 | 41.67535 | 44.94439 | 1564 ft | 4 kts | 247° |
| 2026-04-28 18:22 | 41.67526 | 44.94408 | 1570 ft | 6 kts | 251° |
| 2026-04-28 18:22 | 41.67547 | 44.94319 | 1575 ft | 15 kts | 314° |
| 2026-04-28 18:22 | 41.67633 | 44.94209 | 1579 ft | 19 kts | 316° |
| 2026-04-28 18:22 | 41.67745 | 44.94088 | 1583 ft | 19 kts | 343° |
| 2026-04-28 18:23 | 41.67787 | 44.94040 | 1585 ft | 5 kts | 256° |
| 2026-04-28 18:23 | 41.67759 | 44.94039 | 1585 ft | 9 kts | 141° |
| 2026-04-28 18:23 | 41.67639 | 44.94199 | 1580 ft | 60 kts | 136° |
| 2026-04-28 18:23 | 41.67115 | 44.94858 | 1564 ft | 142 kts | 136° |
| 2026-04-28 18:24 | 41.66242 | 44.95952 | 1672 ft | 198 kts | 137° |
| 2026-04-28 18:24 | 41.65517 | 44.96861 | 1845 ft | 231 kts | 137° |
| 2026-04-28 18:24 | 41.63865 | 44.98916 | 3158 ft | 262 kts | 137° |
| 2026-04-28 18:24 | 41.62432 | 45.00693 | 3826 ft | 293 kts | 138° |
| 2026-04-28 18:25 | 41.60914 | 45.02584 | 4948 ft | 302 kts | 138° |
| 2026-04-28 18:25 | 41.59310 | 45.04362 | 6296 ft | 292 kts | 153° |
| 2026-04-28 18:25 | 41.57443 | 45.05248 | 7516 ft | 283 kts | 177° |
| 2026-04-28 18:26 | 41.53817 | 45.03893 | 9533 ft | 272 kts | 223° |
| 2026-04-28 18:26 | 41.52588 | 45.01996 | 10486 ft | 275 kts | 242° |
| 2026-04-28 18:26 | 41.51937 | 44.99516 | 10913 ft | 296 kts | 263° |
| 2026-04-28 18:26 | 41.51779 | 44.96662 | 11259 ft | 320 kts | 266° |
| 2026-04-28 18:27 | 41.51661 | 44.93648 | 11991 ft | 328 kts | 266° |
| 2026-04-28 18:27 | 41.51520 | 44.90587 | 12859 ft | 333 kts | 265° |
| 2026-04-28 18:27 | 41.51348 | 44.87480 | 13715 ft | 339 kts | 264° |
| 2026-04-28 18:27 | 41.51153 | 44.84347 | 14486 ft | 345 kts | 264° |
| 2026-04-28 18:28 | 41.50945 | 44.81153 | 15304 ft | 347 kts | 263° |
| 2026-04-28 18:28 | 41.50730 | 44.77928 | 16111 ft | 351 kts | 263° |
| 2026-04-28 18:28 | 41.50511 | 44.74659 | 16863 ft | 356 kts | 263° |
| 2026-04-28 18:28 | 41.50288 | 44.71338 | 17621 ft | 360 kts | 263° |
| 2026-04-28 18:29 | 41.50065 | 44.67994 | 18388 ft | 364 kts | 263° |
| 2026-04-28 18:29 | 41.49839 | 44.64596 | 19025 ft | 369 kts | 263° |
| 2026-04-28 18:29 | 41.49611 | 44.61182 | 19719 ft | 372 kts | 263° |
| 2026-04-28 18:29 | 41.49380 | 44.57729 | 20374 ft | 375 kts | 263° |
| 2026-04-28 18:30 | 41.49171 | 44.54617 | 20953 ft | 378 kts | 263° |
| 2026-04-28 18:30 | 41.49088 | 44.53379 | 21206 ft | 379 kts | 263° |
| 2026-04-28 18:30 | 41.48814 | 44.49299 | 21918 ft | 384 kts | 263° |